Forside
METAR-TAF:

METAR-TAF

Lufthavne :

Roskilde Lufthavn

Roskilde, Danmark

Breddekreds: 55-35N, længdekreds: 012-08E, højde: 44 m

Aktuelle vejr

Denne rapport blev lavet for 39 minutter siden, kl. 02:20 UTC
Vind 7 kt fra vestnordvest
Temperatur 10°C
Fugtighed 87%
Tryk 1020 hPa
Sigt 10 km eller mere

METAR: EKRK 250220Z AUTO 29007KT 9999 BKN014/// OVC041/// 10/08 Q1020

Tid: 04:59 (02:59 UTC)

Vejrudsigter

Denne rapport blev lavet for 32 minutter siden, kl. 02:27 UTC
Foreløbig gælder fra 25 på 03 UTC til 25 på 12 UTC
Vind 8 kt fra vestnordvest
Sigt 10 km eller mere
Brudte skyer i en højde af 1500 ft
Midlertidig
fra 25 på 03 UTC til 25 på 09 UTC
Brudte skyer i en højde af 1200 ft
ændring
fra 25 på 09 UTC til 25 på 12 UTC
Vind 10 kt fra nord

TAF: EKRK 250227Z 2503/2512 29008KT 9999 BKN015 TEMPO 2503/2509 BKN012 BECMG 2509/2512 36010KT

Vejrobservationer og prognoser fra mere end 4000 lufthavne (METAR og TAF).

De gule og røde prikker repræsenterer de meteorologiske stationer.

Flyt musen over at se navnet på stationen.

Så klik over at se vejr observationer og prognoser.

At skifte det kort: Klik på de grønne knapper med et sort kors for at zoome ind; på den grønne knap med en bindestreg for at zoome ud; eller på de grønne pile for tilstødende kort.


METAR-TAF: